createdAt,value
2023-03-20T00:00:54.538Z,76.24
2023-03-20T00:03:57.680Z,76.06
2023-03-20T00:07:00.439Z,75.62
2023-03-20T00:10:05.032Z,76.10
2023-03-20T00:13:12.314Z,75.65
2023-03-20T00:16:15.279Z,76.43
2023-03-20T00:19:19.833Z,75.78
2023-03-20T00:22:23.009Z,76.13
2023-03-20T00:25:28.466Z,76.38
2023-03-20T00:28:38.969Z,76.86
2023-03-20T00:31:41.875Z,76.51
2023-03-20T00:34:44.600Z,76.92
2023-03-20T00:37:47.448Z,76.83
2023-03-20T00:40:52.501Z,77.26
2023-03-20T00:43:59.334Z,76.60
2023-03-20T00:47:04.445Z,76.53
2023-03-20T00:50:09.184Z,76.55
2023-03-20T00:53:13.114Z,76.43
2023-03-20T00:56:34.172Z,76.67
2023-03-20T00:59:41.364Z,77.52
2023-03-20T01:02:44.181Z,76.77
2023-03-20T01:05:47.959Z,77.49
2023-03-20T01:08:53.273Z,76.72
2023-03-20T01:11:57.616Z,77.73
2023-03-20T01:15:01.139Z,77.46
2023-03-20T01:18:03.905Z,76.10
2023-03-20T01:21:07.405Z,77.05
2023-03-20T01:24:10.482Z,78.09
2023-03-20T01:27:16.421Z,77.78
2023-03-20T01:30:23.769Z,77.41
2023-03-20T01:33:27.816Z,77.64
2023-03-20T01:36:30.831Z,77.65
2023-03-20T01:39:36.247Z,77.27
2023-03-20T01:42:40.534Z,77.57
2023-03-20T01:45:53.954Z,77.64
2023-03-20T01:49:00.746Z,77.63
2023-03-20T01:52:03.640Z,77.78
2023-03-20T01:55:06.810Z,77.65
2023-03-20T01:58:17.595Z,78.26
2023-03-20T02:01:20.783Z,78.32
2023-03-20T02:04:27.558Z,78.50
2023-03-20T02:07:32.977Z,78.41
2023-03-20T02:10:36.333Z,78.17
2023-03-20T02:13:41.082Z,78.04
2023-03-20T02:16:44.110Z,77.95
2023-03-20T02:19:57.422Z,77.64
2023-03-20T02:23:39.349Z,77.53
2023-03-20T02:26:53.577Z,77.73
2023-03-20T02:30:31.232Z,78.34
2023-03-20T02:34:22.577Z,77.89
2023-03-20T02:37:57.072Z,78.38
2023-03-20T02:41:04.051Z,78.22
2023-03-20T02:44:11.514Z,78.38
2023-03-20T02:47:18.821Z,77.96
2023-03-20T02:50:32.337Z,78.05
2023-03-20T02:53:43.494Z,77.91
2023-03-20T02:56:57.173Z,78.43
2023-03-20T03:00:09.889Z,78.48
2023-03-20T03:03:18.136Z,77.84
2023-03-20T03:06:26.150Z,78.08
2023-03-20T03:09:33.137Z,78.46
2023-03-20T03:12:39.480Z,78.55
2023-03-20T03:15:46.120Z,78.89
2023-03-20T03:18:54.257Z,78.63
2023-03-20T03:21:57.111Z,78.66
2023-03-20T03:25:01.528Z,78.56
2023-03-20T03:28:08.742Z,78.31
2023-03-20T03:31:16.449Z,78.75
2023-03-20T03:34:22.462Z,78.33
2023-03-20T03:37:38.091Z,78.60
2023-03-20T03:40:45.594Z,78.33
2023-03-20T03:43:55.215Z,78.96
2023-03-20T03:47:03.995Z,79.42
2023-03-20T03:50:11.470Z,78.54
2023-03-20T03:53:16.044Z,78.82
2023-03-20T03:56:24.895Z,79.05
2023-03-20T03:59:32.565Z,78.82
2023-03-20T04:02:36.577Z,79.32
2023-03-20T04:05:43.917Z,79.18
2023-03-20T04:08:46.917Z,79.06
2023-03-20T04:11:53.198Z,79.33
2023-03-20T04:14:55.920Z,79.14
2023-03-20T04:17:58.770Z,79.01
2023-03-20T04:21:01.575Z,79.12
2023-03-20T04:24:04.688Z,79.44
2023-03-20T04:27:08.824Z,79.17
2023-03-20T04:30:12.965Z,79.40
2023-03-20T04:33:16.539Z,79.37
2023-03-20T04:36:19.323Z,79.53
2023-03-20T04:39:22.236Z,79.48
2023-03-20T04:42:26.420Z,79.39
2023-03-20T04:45:29.204Z,78.48
2023-03-20T04:48:31.893Z,79.10
2023-03-20T04:51:34.814Z,79.29
2023-03-20T04:54:37.542Z,79.58
2023-03-20T04:57:42.073Z,79.43
2023-03-20T05:00:45.302Z,79.33
2023-03-20T05:03:48.057Z,79.63
2023-03-20T05:06:50.959Z,79.42
2023-03-20T05:09:53.688Z,79.91
2023-03-20T05:12:57.902Z,79.97
2023-03-20T05:16:01.276Z,80.22
2023-03-20T05:19:03.990Z,80.32
2023-03-20T05:22:06.730Z,79.80
2023-03-20T05:25:10.010Z,80.12
2023-03-20T05:28:14.212Z,80.11
2023-03-20T05:31:16.913Z,79.83
2023-03-20T05:34:19.698Z,79.93
2023-03-20T05:37:22.474Z,79.62
2023-03-20T05:40:25.443Z,80.10
2023-03-20T05:43:30.294Z,80.49
2023-03-20T05:46:33.037Z,80.71
2023-03-20T05:49:36.155Z,80.35
2023-03-20T05:52:38.951Z,80.60
2023-03-20T05:55:44.485Z,80.88
2023-03-20T05:58:48.665Z,80.49
2023-03-20T06:01:51.638Z,79.95
2023-03-20T06:04:54.650Z,80.28
2023-03-20T06:07:57.374Z,80.01
2023-03-20T06:11:00.457Z,80.19
2023-03-20T06:14:04.572Z,80.99
2023-03-20T06:17:07.345Z,80.29
2023-03-20T06:20:11.361Z,80.24
2023-03-20T06:23:14.139Z,81.65
2023-03-20T06:26:16.851Z,81.86
2023-03-20T06:29:21.277Z,80.32
2023-03-20T06:32:24.243Z,80.62
2023-03-20T06:35:31.248Z,81.34
2023-03-20T06:38:33.969Z,80.20
2023-03-20T06:41:37.175Z,81.84
2023-03-20T06:44:41.287Z,81.13
2023-03-20T06:47:44.142Z,82.25
2023-03-20T06:50:47.414Z,81.20
2023-03-20T06:53:50.241Z,81.79
2023-03-20T06:56:53.239Z,81.95
2023-03-20T06:59:57.314Z,83.22
2023-03-20T07:03:02.223Z,81.15
2023-03-20T07:06:06.586Z,82.00
2023-03-20T07:09:09.468Z,82.42
2023-03-20T07:12:14.805Z,81.91
2023-03-20T07:15:19.658Z,81.64
2023-03-20T07:18:22.795Z,81.20
2023-03-20T07:21:26.431Z,81.92
2023-03-20T07:24:29.325Z,82.10
2023-03-20T07:27:32.076Z,80.96
2023-03-20T07:30:36.394Z,80.41
2023-03-20T07:33:39.129Z,80.21
2023-03-20T07:36:42.252Z,81.76
2023-03-20T07:39:46.435Z,81.57
2023-03-20T07:42:49.948Z,81.45
2023-03-20T07:45:54.082Z,79.87
2023-03-20T07:48:58.308Z,79.71
2023-03-20T07:52:02.170Z,78.61
2023-03-20T07:55:05.979Z,77.95
2023-03-20T07:58:08.799Z,78.23
2023-03-20T08:01:13.000Z,78.17
2023-03-20T08:04:19.372Z,78.68
2023-03-20T08:07:22.160Z,78.83
2023-03-20T08:10:25.688Z,78.07
2023-03-20T08:13:28.423Z,77.04
2023-03-20T08:16:32.726Z,76.24
2023-03-20T08:19:36.348Z,76.82
2023-03-20T08:22:39.241Z,76.07
2023-03-20T08:25:42.035Z,76.57
2023-03-20T08:28:47.840Z,75.20
2023-03-20T08:31:52.460Z,73.01
2023-03-20T08:34:56.333Z,71.05
2023-03-20T08:37:59.138Z,70.06
2023-03-20T08:41:01.853Z,69.69
2023-03-20T08:44:04.546Z,69.24
2023-03-20T08:47:10.600Z,68.74
2023-03-20T08:50:13.456Z,65.52
2023-03-20T08:53:16.183Z,67.28
2023-03-20T08:56:19.070Z,64.87
2023-03-20T08:59:21.743Z,65.76
2023-03-20T09:02:26.206Z,65.27
2023-03-20T09:05:29.084Z,65.05
2023-03-20T09:08:32.202Z,64.36
2023-03-20T09:11:35.412Z,63.02
2023-03-20T09:14:38.384Z,61.99
2023-03-20T09:17:42.708Z,62.44
2023-03-20T09:20:45.416Z,61.24
2023-03-20T09:23:48.517Z,61.00
2023-03-20T09:26:52.283Z,62.49
2023-03-20T09:29:55.011Z,61.14
2023-03-20T09:32:59.151Z,61.91
2023-03-20T09:36:01.983Z,60.81
2023-03-20T09:39:05.256Z,62.33
2023-03-20T09:42:23.247Z,61.55
2023-03-20T09:45:41.265Z,62.34
2023-03-20T09:48:55.101Z,60.43
2023-03-20T09:52:00.280Z,60.59
2023-03-20T09:55:08.804Z,60.61
2023-03-20T09:58:16.307Z,61.29
2023-03-20T10:01:23.687Z,60.79
2023-03-20T10:04:31.196Z,61.26
2023-03-20T10:07:33.927Z,62.04
2023-03-20T10:10:47.299Z,61.52
2023-03-20T10:14:02.908Z,61.21
2023-03-20T10:17:21.837Z,60.23
2023-03-20T10:20:31.236Z,61.59
2023-03-20T10:23:37.501Z,61.13
2023-03-20T10:26:41.002Z,61.14
2023-03-20T10:29:52.785Z,59.67
2023-03-20T10:33:09.210Z,59.33
2023-03-20T10:36:29.055Z,58.91
2023-03-20T10:39:50.637Z,58.65
2023-03-20T10:42:57.124Z,58.82
2023-03-20T10:46:03.877Z,58.69
2023-03-20T10:49:14.406Z,58.34
2023-03-20T10:52:21.752Z,59.60
2023-03-20T10:55:29.065Z,58.73
2023-03-20T10:58:35.054Z,59.04
2023-03-20T11:01:37.873Z,57.90
2023-03-20T11:04:40.698Z,58.47
2023-03-20T11:07:46.339Z,58.96
2023-03-20T11:11:00.069Z,58.98
2023-03-20T11:14:16.741Z,60.03
2023-03-20T11:17:19.494Z,59.26
2023-03-20T11:20:22.757Z,59.98
2023-03-20T11:23:30.242Z,60.45
2023-03-20T11:26:37.020Z,58.98
2023-03-20T11:29:42.684Z,60.37
2023-03-20T11:32:49.648Z,60.16
2023-03-20T11:39:24.342Z,60.67
2023-03-20T11:42:29.291Z,59.43
2023-03-20T11:45:36.784Z,60.49
2023-03-20T11:48:41.119Z,59.44
2023-03-20T11:51:44.014Z,59.04
2023-03-20T11:54:51.101Z,59.38
2023-03-20T11:57:58.345Z,61.03
2023-03-20T12:01:03.948Z,59.42
2023-03-20T12:04:11.187Z,60.31
2023-03-20T12:07:17.809Z,59.64
2023-03-20T12:10:23.006Z,60.04
2023-03-20T12:13:29.892Z,59.89
2023-03-20T12:16:36.742Z,59.74
2023-03-20T12:19:41.536Z,59.92
2023-03-20T12:22:52.649Z,59.46
2023-03-20T12:26:01.083Z,59.74
2023-03-20T12:29:07.982Z,59.21
2023-03-20T12:32:18.150Z,59.63
2023-03-20T12:35:27.467Z,60.09
2023-03-20T12:38:32.784Z,60.49
2023-03-20T12:41:47.785Z,61.58
2023-03-20T12:44:54.577Z,61.24
2023-03-20T12:48:17.010Z,60.86
2023-03-20T12:51:29.366Z,60.73
2023-03-20T12:54:43.669Z,60.62
2023-03-20T12:58:08.491Z,59.74
2023-03-20T13:01:18.307Z,59.68
2023-03-20T13:04:45.306Z,59.28
2023-03-20T13:08:01.873Z,59.29
2023-03-20T13:11:13.060Z,57.93
2023-03-20T13:14:25.602Z,58.21
2023-03-20T13:17:35.424Z,59.06
2023-03-20T13:20:47.760Z,59.52
2023-03-20T13:23:59.877Z,57.78
2023-03-20T13:27:12.896Z,57.72
2023-03-20T13:30:26.127Z,59.16
2023-03-20T13:33:43.395Z,58.55
2023-03-20T13:37:12.396Z,58.93
2023-03-20T13:40:27.240Z,59.19
2023-03-20T13:43:34.670Z,60.15
2023-03-20T13:46:43.328Z,59.87
2023-03-20T13:49:54.946Z,60.76
2023-03-20T13:53:04.250Z,60.37
2023-03-20T13:56:16.465Z,61.84
2023-03-20T13:59:41.476Z,59.25
2023-03-20T14:03:06.555Z,59.54
2023-03-20T14:06:42.770Z,59.81
2023-03-20T14:09:46.603Z,60.54
2023-03-20T14:12:50.312Z,61.15
2023-03-20T14:15:56.281Z,60.49
2023-03-20T14:19:18.216Z,60.55
2023-03-20T14:22:23.352Z,60.57
2023-03-20T14:25:28.171Z,61.64
2023-03-20T14:28:34.657Z,60.89
2023-03-20T14:31:38.874Z,60.15
2023-03-20T14:34:49.065Z,61.02
2023-03-20T14:38:09.978Z,61.47
2023-03-20T14:41:17.750Z,62.01
2023-03-20T14:44:31.380Z,62.45
2023-03-20T14:47:45.587Z,60.76
2023-03-20T14:51:03.985Z,61.10
2023-03-20T14:54:28.083Z,62.44
2023-03-20T14:57:48.691Z,61.06
2023-03-20T15:00:55.804Z,61.13
2023-03-20T15:04:02.610Z,61.37
2023-03-20T15:07:14.586Z,60.82
2023-03-20T15:10:19.519Z,62.02
2023-03-20T15:13:24.794Z,61.09
2023-03-20T15:16:30.453Z,61.53
2023-03-20T15:19:33.729Z,61.49
2023-03-20T15:22:48.943Z,60.98
2023-03-20T15:25:51.962Z,61.19
2023-03-20T15:29:01.931Z,60.91
2023-03-20T15:32:14.381Z,61.20
2023-03-20T15:35:20.726Z,61.29
2023-03-20T15:38:31.269Z,61.48
2023-03-20T15:41:35.924Z,61.11
2023-03-20T15:44:40.532Z,60.94
2023-03-20T15:47:44.174Z,59.90
2023-03-20T15:50:49.958Z,61.08
2023-03-20T15:53:54.230Z,60.45
2023-03-20T15:57:00.836Z,59.22
2023-03-20T16:00:05.880Z,59.51
2023-03-20T16:03:12.773Z,60.13
2023-03-20T16:06:20.166Z,60.74
2023-03-20T16:09:25.084Z,60.84
2023-03-20T16:12:28.750Z,60.62
2023-03-20T16:15:33.855Z,61.15
2023-03-20T16:18:39.558Z,60.79
2023-03-20T16:21:47.616Z,60.89
2023-03-20T16:24:55.625Z,61.29
2023-03-20T16:27:59.945Z,61.08
2023-03-20T16:31:10.327Z,61.23
2023-03-20T16:34:19.751Z,62.01
2023-03-20T16:37:27.340Z,61.38
2023-03-20T16:40:34.300Z,61.32
2023-03-20T16:43:39.609Z,60.73
2023-03-20T16:46:58.282Z,61.16
2023-03-20T16:50:22.003Z,61.33
2023-03-20T16:53:24.968Z,62.58
2023-03-20T16:56:34.564Z,62.27
2023-03-20T16:59:40.940Z,61.90
2023-03-20T17:02:46.015Z,62.38
2023-03-20T17:05:56.231Z,63.12
2023-03-20T17:09:03.505Z,63.12
2023-03-20T17:12:16.089Z,63.86
2023-03-20T17:15:20.768Z,63.46
2023-03-20T17:18:23.511Z,63.79
2023-03-20T17:21:26.471Z,64.70
2023-03-20T17:24:29.308Z,64.63
2023-03-20T17:27:34.374Z,64.43
2023-03-20T17:30:37.240Z,64.63
2023-03-20T17:33:40.125Z,65.29
2023-03-20T17:36:43.136Z,64.93
2023-03-20T17:39:45.840Z,64.79
2023-03-20T17:42:50.172Z,65.43
2023-03-20T17:45:53.025Z,66.22
2023-03-20T17:49:00.156Z,65.98
2023-03-20T17:52:02.929Z,66.41
2023-03-20T17:55:06.380Z,65.96
2023-03-20T17:58:17.351Z,65.95
2023-03-20T18:01:20.430Z,65.28
2023-03-20T18:04:24.226Z,66.11
2023-03-20T18:07:27.122Z,65.87
2023-03-20T18:10:32.892Z,66.25
2023-03-20T18:13:37.295Z,65.28
2023-03-20T18:16:40.012Z,65.71
2023-03-20T18:19:43.808Z,65.78
2023-03-20T18:22:46.694Z,66.22
2023-03-20T18:25:49.473Z,66.44
2023-03-20T18:28:55.509Z,66.37
2023-03-20T18:31:58.298Z,66.54
2023-03-20T18:35:01.016Z,66.15
2023-03-20T18:38:04.590Z,66.21
2023-03-20T18:41:08.511Z,66.62
2023-03-20T18:44:13.193Z,67.04
2023-03-20T18:47:15.901Z,67.15
2023-03-20T18:50:27.422Z,67.54
2023-03-20T18:53:32.418Z,67.64
2023-03-20T18:56:36.809Z,68.25
2023-03-20T18:59:41.098Z,67.92
2023-03-20T19:02:43.881Z,68.35
2023-03-20T19:05:46.750Z,68.65
2023-03-20T19:08:51.528Z,68.47
2023-03-20T19:11:54.407Z,68.31
2023-03-20T19:14:58.474Z,68.63
2023-03-20T19:18:01.235Z,68.74
2023-03-20T19:21:04.428Z,68.55
2023-03-20T19:24:08.992Z,69.11
2023-03-20T19:27:17.562Z,68.74
2023-03-20T19:30:33.300Z,68.46
2023-03-20T19:33:36.250Z,68.97
2023-03-20T19:36:39.143Z,69.45
2023-03-20T19:39:41.874Z,69.93
2023-03-20T19:43:01.062Z,69.88
2023-03-20T19:46:09.584Z,69.75
2023-03-20T19:49:19.076Z,69.85
2023-03-20T19:52:30.245Z,70.90
2023-03-20T19:55:33.379Z,70.21
2023-03-20T19:58:36.068Z,71.10
2023-03-20T20:01:40.502Z,70.99
2023-03-20T20:04:43.259Z,70.92
2023-03-20T20:08:17.050Z,70.99
2023-03-20T20:11:11.814Z,70.97
2023-03-20T20:14:15.484Z,71.05
2023-03-20T20:17:19.566Z,71.71
2023-03-20T20:20:25.044Z,71.22
2023-03-20T20:23:29.848Z,71.09
2023-03-20T20:26:38.908Z,71.34
2023-03-20T20:29:44.184Z,71.08
2023-03-20T20:32:48.714Z,71.14
2023-03-20T20:36:26.941Z,71.62
2023-03-20T20:39:14.444Z,71.29
2023-03-20T20:42:18.484Z,71.44
2023-03-20T20:45:22.909Z,71.46
2023-03-20T20:48:27.244Z,71.67
2023-03-20T20:51:31.721Z,71.51
2023-03-20T20:54:35.069Z,71.82
2023-03-20T20:57:38.049Z,71.82
2023-03-20T21:00:51.686Z,71.53
2023-03-20T21:03:58.429Z,71.80
2023-03-20T21:07:09.793Z,71.34
2023-03-20T21:10:16.782Z,71.40
2023-03-20T21:13:19.471Z,71.56
2023-03-20T21:16:23.579Z,71.30
2023-03-20T21:19:28.247Z,70.84
2023-03-20T21:22:31.260Z,71.27
2023-03-20T21:25:45.489Z,71.36
2023-03-20T21:28:49.870Z,71.70
2023-03-20T21:31:52.664Z,72.29
2023-03-20T21:34:57.024Z,71.88
2023-03-20T21:41:23.272Z,72.97
2023-03-20T21:45:04.584Z,72.84
2023-03-20T22:12:14.510Z,70.83
2023-03-20T22:22:26.690Z,70.23
2023-03-20T22:25:50.707Z,70.50
2023-03-20T22:32:49.705Z,68.83
2023-03-20T22:45:38.022Z,66.61
2023-03-20T22:48:46.106Z,66.44
2023-03-20T22:52:07.794Z,65.67
2023-03-20T22:55:11.660Z,66.07
2023-03-20T22:58:17.368Z,65.62
2023-03-20T23:01:20.355Z,65.14
2023-03-20T23:04:23.488Z,65.54
2023-03-20T23:07:26.219Z,64.82
2023-03-20T23:10:29.056Z,64.25
2023-03-20T23:13:33.100Z,64.69
2023-03-20T23:16:36.362Z,65.32
2023-03-20T23:19:47.960Z,64.81
2023-03-20T23:22:53.251Z,64.67
2023-03-20T23:26:03.574Z,64.53
2023-03-20T23:29:07.894Z,64.59
2023-03-20T23:32:10.775Z,64.73
2023-03-20T23:35:13.688Z,64.04
2023-03-20T23:38:16.394Z,64.89
2023-03-20T23:41:19.340Z,65.63
2023-03-20T23:44:23.502Z,66.64
2023-03-20T23:47:30.098Z,66.84
2023-03-20T23:50:51.804Z,67.48
2023-03-20T23:53:55.384Z,66.71
2023-03-20T23:56:58.349Z,66.96
